createdAt,value
2022-10-16T00:07:25.768Z,4
2022-10-16T00:13:36.103Z,4
2022-10-16T00:17:18.473Z,3
2022-10-16T00:22:15.003Z,4
2022-10-16T00:34:36.341Z,3
2022-10-16T00:38:18.733Z,3
2022-10-16T00:43:15.300Z,3
2022-10-16T00:49:25.981Z,3
2022-10-16T00:51:54.216Z,3
2022-10-16T00:55:38.828Z,3
2022-10-16T00:59:19.035Z,3
2022-10-16T01:04:15.545Z,3
2022-10-16T01:10:26.204Z,3
2022-10-16T01:16:36.913Z,3
2022-10-16T01:20:19.299Z,3
2022-10-16T01:25:15.816Z,3
2022-10-16T01:31:26.498Z,3
2022-10-16T01:37:37.147Z,3
2022-10-16T01:41:19.549Z,3
2022-10-16T01:48:44.391Z,2
2022-10-16T01:52:27.150Z,2
2022-10-16T01:58:45.635Z,2
2022-10-16T02:07:24.532Z,2
2022-10-16T02:13:35.212Z,2
2022-10-16T02:17:17.603Z,2
2022-10-16T02:22:14.140Z,1
2022-10-16T02:28:24.888Z,2
2022-10-16T02:34:35.466Z,2
2022-10-16T02:38:17.871Z,1
2022-10-16T02:43:14.406Z,1
2022-10-16T02:49:25.065Z,1
2022-10-16T02:55:35.747Z,1
2022-10-16T02:59:18.133Z,1
2022-10-16T03:04:14.671Z,1
2022-10-16T03:10:25.333Z,1
2022-10-16T08:09:25.615Z,1
2022-10-16T08:15:36.309Z,1
2022-10-16T08:19:18.719Z,1
2022-10-16T08:24:15.228Z,1
2022-10-16T08:30:25.892Z,1
2022-10-16T08:32:54.251Z,1
2022-10-16T08:40:19.019Z,1
2022-10-16T08:51:34.355Z,1
2022-10-16T08:55:16.761Z,1
2022-10-16T08:57:45.034Z,1
2022-10-16T09:12:34.628Z,1
2022-10-16T09:16:17.035Z,1
2022-10-16T09:18:45.340Z,1
2022-10-16T09:27:24.445Z,1
2022-10-16T09:33:34.911Z,1
2022-10-16T09:37:17.312Z,1
2022-10-16T09:39:45.586Z,1
2022-10-16T09:48:24.509Z,1
2022-10-16T09:54:35.174Z,1
2022-10-16T09:58:17.585Z,1
2022-10-16T10:03:14.111Z,1
2022-10-16T10:09:24.793Z,1
2022-10-16T10:15:35.482Z,1
2022-10-16T10:19:17.854Z,1
2022-10-16T10:24:14.423Z,1
2022-10-16T10:30:25.072Z,1
2022-10-16T10:40:18.159Z,1
2022-10-16T10:45:14.671Z,1
2022-10-16T10:51:25.340Z,1
2022-10-16T11:01:18.404Z,1
2022-10-16T11:06:14.935Z,1
2022-10-16T11:12:25.654Z,1
2022-10-16T11:18:36.275Z,2
2022-10-16T11:22:18.667Z,1
2022-10-16T11:27:15.213Z,1
2022-10-16T11:33:25.881Z,1
2022-10-16T11:35:54.155Z,1
2022-10-16T11:43:18.954Z,1
2022-10-16T11:48:15.484Z,1
2022-10-16T11:54:26.198Z,1
2022-10-16T11:56:54.418Z,1
2022-10-16T12:00:36.862Z,1
2022-10-16T12:04:19.280Z,1
2022-10-16T12:09:15.763Z,1
2022-10-16T12:15:40.965Z,2
2022-10-16T12:26:25.439Z,1
2022-10-16T12:36:20.995Z,1
2022-10-16T12:41:15.040Z,1
2022-10-16T12:47:25.731Z,2
2022-10-16T12:53:36.451Z,1
2022-10-16T12:57:27.189Z,1
2022-10-16T13:08:34.161Z,1
2022-10-16T13:12:16.562Z,1
2022-10-16T13:18:27.248Z,1
2022-10-16T13:29:34.456Z,1
2022-10-16T13:33:16.834Z,1
2022-10-16T13:39:19.303Z,1
2022-10-16T13:44:15.871Z,1
2022-10-16T13:46:44.110Z,1
2022-10-16T13:50:26.507Z,1
2022-10-16T13:56:37.180Z,1
2022-10-16T14:00:19.574Z,1
2022-10-16T14:05:16.134Z,1
2022-10-16T14:07:44.388Z,1
2022-10-16T14:11:26.771Z,1
2022-10-16T14:17:37.441Z,1
2022-10-16T14:21:19.844Z,1
2022-10-16T14:26:16.405Z,1
2022-10-16T14:28:44.722Z,1
2022-10-16T14:32:27.340Z,1
2022-10-16T14:43:34.258Z,1
2022-10-16T14:47:16.649Z,1
2022-10-16T14:49:44.918Z,1
2022-10-16T14:53:27.317Z,1
2022-10-16T15:04:34.528Z,1
2022-10-16T15:08:16.920Z,1
2022-10-16T15:10:45.183Z,1
2022-10-16T15:19:24.125Z,1
2022-10-16T15:25:34.795Z,3
2022-10-16T15:29:17.188Z,1
2022-10-16T15:44:15.021Z,5
2022-10-16T15:50:25.686Z,14
2022-10-16T15:56:36.352Z,40
2022-10-16T16:00:18.745Z,49
2022-10-16T16:05:15.286Z,44
2022-10-16T16:11:25.953Z,32
2022-10-16T16:13:54.219Z,24
2022-10-16T16:17:36.663Z,12
2022-10-16T16:26:15.562Z,7
2022-10-16T16:32:26.220Z,5
2022-10-16T16:38:36.886Z,5
2022-10-16T16:42:19.294Z,4
2022-10-16T16:47:15.828Z,4
2022-10-16T16:53:26.493Z,3
2022-10-16T16:59:37.160Z,6
2022-10-16T17:08:16.103Z,6
2022-10-16T17:14:34.958Z,6
2022-10-16T17:15:49.085Z,6
2022-10-16T17:18:17.349Z,6
2022-10-16T17:20:45.612Z,6
2022-10-16T17:29:24.565Z,6
2022-10-16T17:35:35.229Z,11
2022-10-16T17:39:17.652Z,7
2022-10-16T17:41:45.902Z,6
2022-10-16T17:44:14.153Z,6
2022-10-16T17:50:24.834Z,6
2022-10-16T17:56:35.500Z,5
2022-10-16T18:00:17.903Z,5
2022-10-16T18:02:46.169Z,6
2022-10-16T18:05:14.435Z,5
2022-10-16T18:11:25.118Z,6
2022-10-16T18:21:18.175Z,7
2022-10-16T18:26:14.704Z,5
2022-10-16T18:32:25.355Z,13
2022-10-16T18:38:36.041Z,5
2022-10-16T18:42:18.425Z,4
2022-10-16T18:47:14.961Z,5
2022-10-16T18:53:25.688Z,4
2022-10-16T18:59:36.325Z,5
2022-10-16T19:03:18.705Z,5
2022-10-16T19:08:15.236Z,4
2022-10-16T19:18:16.502Z,6
2022-10-16T19:20:44.764Z,6
2022-10-16T19:35:34.374Z,4
2022-10-16T19:39:16.849Z,4
2022-10-16T19:41:45.044Z,5
2022-10-16T19:56:34.631Z,5
2022-10-16T20:00:17.038Z,5
2022-10-16T20:02:45.313Z,5
2022-10-16T20:11:24.249Z,5
2022-10-16T20:17:34.954Z,5
2022-10-16T20:21:17.310Z,5
2022-10-16T20:32:24.513Z,9
2022-10-16T20:38:35.178Z,7
2022-10-16T20:42:17.578Z,6
2022-10-16T20:47:14.111Z,6
2022-10-16T20:53:24.780Z,6
2022-10-16T20:59:35.448Z,7
2022-10-16T21:03:17.844Z,6
2022-10-16T21:14:25.057Z,6
2022-10-16T21:20:35.803Z,7
2022-10-16T21:24:18.118Z,6
2022-10-16T21:29:14.732Z,6
2022-10-16T21:34:19.377Z,6
2022-10-16T21:41:44.204Z,5
2022-10-16T21:45:26.576Z,5
2022-10-16T21:51:37.254Z,6
2022-10-16T22:00:16.241Z,6
2022-10-16T22:02:44.449Z,6
2022-10-16T22:06:26.861Z,8
2022-10-16T22:12:37.523Z,7
2022-10-16T22:21:16.448Z,5
2022-10-16T22:23:44.722Z,5
2022-10-16T22:27:27.406Z,6
2022-10-16T22:38:34.315Z,6
2022-10-16T22:44:37.421Z,6
2022-10-16T22:48:19.221Z,6
2022-10-16T22:53:15.734Z,6
2022-10-16T22:59:26.399Z,6
2022-10-16T23:01:54.666Z,6
2022-10-16T23:05:37.057Z,5
2022-10-16T23:09:19.457Z,5
2022-10-16T23:14:15.993Z,6
2022-10-16T23:16:44.264Z,6
2022-10-16T23:20:26.681Z,6
2022-10-16T23:26:37.338Z,6
2022-10-16T23:30:19.723Z,5
2022-10-16T23:35:16.265Z,6
2022-10-16T23:37:44.523Z,5
2022-10-16T23:41:26.923Z,6
2022-10-16T23:47:37.634Z,6
2022-10-16T23:51:19.996Z,5
2022-10-16T23:52:34.153Z,6
2022-10-16T23:56:16.526Z,6
2022-10-16T23:58:44.790Z,6
